createdAt,value
2022-11-27T00:02:19.356Z,101456.96
2022-11-27T00:04:51.471Z,101457.70
2022-11-27T00:07:23.419Z,101457.91
2022-11-27T00:09:55.366Z,101454.33
2022-11-27T00:12:27.252Z,101461.02
2022-11-27T00:14:59.253Z,101462.55
2022-11-27T00:17:31.232Z,101465.19
2022-11-27T00:20:03.141Z,101465.54
2022-11-27T00:22:35.080Z,101460.86
2022-11-27T00:25:09.957Z,101461.73
2022-11-27T00:27:41.901Z,101462.98
2022-11-27T00:30:15.971Z,101462.04
2022-11-27T00:32:48.234Z,101462.64
2022-11-27T00:35:20.355Z,101455.25
2022-11-27T00:37:52.317Z,101459.17
2022-11-27T00:40:24.208Z,101450.86
2022-11-27T00:42:56.140Z,101453.33
2022-11-27T00:45:28.152Z,101451.68
2022-11-27T00:48:00.144Z,101452.54
2022-11-27T00:50:32.489Z,101451.72
2022-11-27T00:53:04.481Z,101450.31
2022-11-27T00:55:36.442Z,101453.63
2022-11-27T00:58:08.403Z,101451.95
2022-11-27T01:00:40.393Z,101448.48
2022-11-27T01:03:12.643Z,101447.44
2022-11-27T01:05:44.997Z,101445.45
2022-11-27T01:08:16.975Z,101444.77
2022-11-27T01:10:54.936Z,101445.77
2022-11-27T01:13:29.989Z,101448.64
2022-11-27T01:16:03.290Z,101447.75
2022-11-27T01:18:36.554Z,101450.45
2022-11-27T01:21:09.106Z,101448.88
2022-11-27T01:23:41.507Z,101450.32
2022-11-27T01:26:13.903Z,101451.98
2022-11-27T01:28:46.869Z,101448.48
2022-11-27T01:31:20.816Z,101451.39
2022-11-27T01:33:55.964Z,101444.13
2022-11-27T01:36:28.617Z,101440.92
2022-11-27T01:39:01.046Z,101439.16
2022-11-27T01:41:35.236Z,101438.08
2022-11-27T01:44:44.393Z,101435.41
2022-11-27T01:47:24.114Z,101436.77
2022-11-27T01:49:59.867Z,101435.77
2022-11-27T01:52:36.617Z,101438.52
2022-11-27T01:55:13.879Z,101437.05
2022-11-27T01:57:49.632Z,101436.90
2022-11-27T02:00:22.613Z,101443.00
2022-11-27T02:02:55.161Z,101439.36
2022-11-27T02:05:29.340Z,101442.39
2022-11-27T02:08:04.225Z,101447.30
2022-11-27T02:10:42.428Z,101452.69
2022-11-27T02:13:19.050Z,101444.27
2022-11-27T02:15:57.524Z,101444.66
2022-11-27T02:18:38.594Z,101443.17
2022-11-27T02:21:18.469Z,101447.38
2022-11-27T02:24:08.990Z,101447.99
2022-11-27T02:27:04.654Z,101448.58
2022-11-27T02:29:37.877Z,101453.42
2022-11-27T02:32:17.010Z,101454.29
2022-11-27T02:34:56.272Z,101458.46
2022-11-27T02:37:35.635Z,101453.80
2022-11-27T02:40:13.866Z,101456.32
2022-11-27T02:42:50.387Z,101457.59
2022-11-27T02:45:29.340Z,101457.91
2022-11-27T02:48:02.378Z,101457.59
2022-11-27T02:50:37.216Z,101454.05
2022-11-27T02:53:13.653Z,101449.72
2022-11-27T02:55:47.894Z,101450.95
2022-11-27T02:58:23.978Z,101454.98
2022-11-27T03:00:58.732Z,101456.20
2022-11-27T03:03:35.432Z,101459.32
2022-11-27T03:06:12.950Z,101462.15
2022-11-27T03:08:53.468Z,101461.77
2022-11-27T03:11:27.808Z,101461.70
2022-11-27T03:14:04.409Z,101460.00
2022-11-27T03:16:43.998Z,101461.60
2022-11-27T03:19:21.057Z,101458.34
2022-11-27T03:21:57.144Z,101457.67
2022-11-27T03:24:30.360Z,101455.25
2022-11-27T03:27:02.862Z,101456.19
2022-11-27T03:29:39.689Z,101457.71
2022-11-27T03:32:12.316Z,101459.53
2022-11-27T03:34:44.564Z,101462.86
2022-11-27T03:37:16.832Z,101462.89
2022-11-27T03:39:49.097Z,101465.41
2022-11-27T03:42:28.003Z,101469.61
2022-11-27T03:45:08.159Z,101471.23
2022-11-27T03:47:55.816Z,101476.21
2022-11-27T03:50:41.936Z,101474.30
2022-11-27T03:53:25.984Z,101474.15
2022-11-27T03:56:09.770Z,101475.35
2022-11-27T03:58:48.270Z,101470.20
2022-11-27T04:01:24.619Z,101465.03
2022-11-27T04:03:56.654Z,101463.20
2022-11-27T04:06:28.687Z,101461.49
2022-11-27T04:09:00.655Z,101457.20
2022-11-27T04:11:32.691Z,101455.33
2022-11-27T04:14:05.243Z,101459.71
2022-11-27T04:16:37.280Z,101455.65
2022-11-27T04:19:09.638Z,101456.67
2022-11-27T04:21:41.568Z,101459.45
2022-11-27T04:24:13.481Z,101461.27
2022-11-27T04:26:45.418Z,101458.35
2022-11-27T04:29:18.011Z,101452.77
2022-11-27T04:31:50.080Z,101453.65
2022-11-27T04:34:22.179Z,101456.59
2022-11-27T04:36:54.143Z,101450.83
2022-11-27T04:39:26.028Z,101447.86
2022-11-27T04:41:58.043Z,101444.61
2022-11-27T04:44:30.006Z,101455.15
2022-11-27T04:47:02.775Z,101454.03
2022-11-27T04:49:34.885Z,101453.19
2022-11-27T04:52:07.366Z,101450.60
2022-11-27T04:54:39.746Z,101451.77
2022-11-27T04:57:11.909Z,101453.25
2022-11-27T04:59:44.199Z,101451.74
2022-11-27T05:02:16.185Z,101444.91
2022-11-27T05:04:48.273Z,101444.80
2022-11-27T05:07:20.264Z,101444.67
2022-11-27T05:09:52.380Z,101439.55
2022-11-27T05:12:24.369Z,101439.63
2022-11-27T05:14:57.961Z,101439.91
2022-11-27T05:17:32.676Z,101437.70
2022-11-27T05:20:04.996Z,101427.46
2022-11-27T05:22:37.010Z,101424.54
2022-11-27T05:25:13.178Z,101428.75
2022-11-27T05:27:45.058Z,101422.98
2022-11-27T05:30:17.329Z,101418.83
2022-11-27T05:32:49.294Z,101418.61
2022-11-27T05:35:21.179Z,101419.25
2022-11-27T05:37:53.118Z,101414.95
2022-11-27T05:40:25.028Z,101412.71
2022-11-27T05:42:56.991Z,101412.85
2022-11-27T05:45:29.057Z,101414.95
2022-11-27T05:48:00.996Z,101420.64
2022-11-27T05:50:33.191Z,101422.69
2022-11-27T05:53:05.155Z,101428.20
2022-11-27T05:55:37.039Z,101432.19
2022-11-27T05:58:09.028Z,101432.34
2022-11-27T06:00:40.999Z,101429.39
2022-11-27T06:03:13.396Z,101430.89
2022-11-27T06:05:45.380Z,101428.98
2022-11-27T06:08:17.317Z,101433.87
2022-11-27T06:10:50.295Z,101429.66
2022-11-27T06:13:22.217Z,101430.41
2022-11-27T06:15:54.107Z,101432.84
2022-11-27T06:18:26.094Z,101435.38
2022-11-27T06:20:58.004Z,101437.39
2022-11-27T06:23:30.300Z,101436.19
2022-11-27T06:26:10.251Z,101434.77
2022-11-27T06:28:42.650Z,101426.77
2022-11-27T06:31:18.297Z,101420.88
2022-11-27T06:33:51.696Z,101423.08
2022-11-27T06:36:24.608Z,101426.00
2022-11-27T06:38:57.035Z,101422.65
2022-11-27T06:41:29.311Z,101423.05
2022-11-27T06:44:03.392Z,101426.02
2022-11-27T06:46:35.260Z,101427.73
2022-11-27T06:49:07.394Z,101427.38
2022-11-27T06:51:39.308Z,101426.27
2022-11-27T06:54:11.192Z,101429.72
2022-11-27T06:56:43.258Z,101433.55
2022-11-27T06:59:15.682Z,101424.69
2022-11-27T07:01:47.880Z,101430.29
2022-11-27T07:04:19.846Z,101427.54
2022-11-27T07:06:51.829Z,101425.87
2022-11-27T07:09:23.845Z,101427.60
2022-11-27T07:11:55.760Z,101425.77
2022-11-27T07:14:27.694Z,101422.73
2022-11-27T07:16:59.632Z,101425.77
2022-11-27T07:19:31.909Z,101418.58
2022-11-27T07:22:03.789Z,101421.76
2022-11-27T07:24:35.862Z,101421.48
2022-11-27T07:27:08.766Z,101420.66
2022-11-27T07:29:40.702Z,101421.94
2022-11-27T07:32:12.595Z,101419.42
2022-11-27T07:34:44.476Z,101420.14
2022-11-27T07:37:16.465Z,101421.70
2022-11-27T07:40:02.490Z,101420.13
2022-11-27T07:42:39.200Z,101423.27
2022-11-27T07:45:14.063Z,101421.13
2022-11-27T07:47:46.283Z,101407.13
2022-11-27T07:50:18.195Z,101410.27
2022-11-27T07:52:50.110Z,101417.07
2022-11-27T07:55:22.075Z,101415.48
2022-11-27T07:57:54.061Z,101421.83
2022-11-27T08:00:26.108Z,101418.04
2022-11-27T08:02:58.116Z,101417.83
2022-11-27T08:05:30.181Z,101428.25
2022-11-27T08:08:05.039Z,101431.18
2022-11-27T08:10:37.692Z,101431.18
2022-11-27T08:13:09.937Z,101434.21
2022-11-27T08:15:41.953Z,101437.52
2022-11-27T08:18:13.893Z,101438.67
2022-11-27T08:20:45.828Z,101439.38
2022-11-27T08:23:17.715Z,101439.64
2022-11-27T08:25:49.652Z,101435.38
2022-11-27T08:28:21.948Z,101440.94
2022-11-27T08:31:00.287Z,101446.11
2022-11-27T08:33:33.324Z,101443.29
2022-11-27T08:36:09.022Z,101447.67
2022-11-27T08:38:43.215Z,101453.53
2022-11-27T08:41:15.592Z,101456.29
2022-11-27T08:43:47.582Z,101460.08
2022-11-27T08:46:19.761Z,101465.39
2022-11-27T08:48:51.999Z,101460.94
2022-11-27T08:51:24.348Z,101464.59
2022-11-27T08:53:56.278Z,101465.11
2022-11-27T08:56:28.445Z,101461.16
2022-11-27T08:59:00.434Z,101458.55
2022-11-27T09:01:33.624Z,101454.86
2022-11-27T09:04:06.412Z,101458.60
2022-11-27T09:06:39.501Z,101464.70
2022-11-27T09:09:11.763Z,101461.11
2022-11-27T09:11:43.961Z,101466.83
2022-11-27T09:14:15.850Z,101464.59
2022-11-27T09:16:48.012Z,101466.95
2022-11-27T09:19:21.703Z,101470.13
2022-11-27T09:21:53.762Z,101468.79
2022-11-27T09:24:26.061Z,101464.77
2022-11-27T09:26:58.123Z,101461.02
2022-11-27T09:29:30.318Z,101463.76
2022-11-27T09:32:02.382Z,101457.20
2022-11-27T09:34:37.461Z,101451.00
2022-11-27T09:37:10.304Z,101449.19
2022-11-27T09:39:42.159Z,101443.74
2022-11-27T09:42:34.639Z,101442.27
2022-11-27T09:45:12.975Z,101438.05
2022-11-27T09:47:50.404Z,101429.27
2022-11-27T09:50:27.249Z,101428.89
2022-11-27T09:53:02.568Z,101433.43
2022-11-27T09:55:39.027Z,101432.14
2022-11-27T09:58:19.747Z,101431.73
2022-11-27T10:00:51.813Z,101443.55
2022-11-27T10:03:27.536Z,101451.77
2022-11-27T10:06:15.860Z,101449.94
2022-11-27T10:08:59.779Z,101452.18
2022-11-27T10:11:36.247Z,101451.31
2022-11-27T10:14:20.602Z,101447.10
2022-11-27T10:16:56.926Z,101441.64
2022-11-27T10:19:36.895Z,101448.73
2022-11-27T10:22:21.032Z,101453.53
2022-11-27T10:25:04.373Z,101451.77
2022-11-27T10:27:45.148Z,101450.52
2022-11-27T10:30:19.799Z,101450.77
2022-11-27T10:32:57.099Z,101445.23
2022-11-27T10:35:31.822Z,101439.54
2022-11-27T10:38:12.094Z,101440.80
2022-11-27T10:40:46.979Z,101440.77
2022-11-27T10:43:22.298Z,101444.39
2022-11-27T10:45:58.369Z,101438.02
2022-11-27T10:48:30.475Z,101436.98
2022-11-27T10:51:02.411Z,101434.48
2022-11-27T10:53:36.573Z,101436.38
2022-11-27T10:56:31.782Z,101434.60
2022-11-27T10:59:07.584Z,101430.64
2022-11-27T11:01:47.550Z,101426.31
2022-11-27T11:04:43.012Z,101428.22
2022-11-27T11:07:27.542Z,101431.16
2022-11-27T11:09:59.650Z,101429.40
2022-11-27T11:12:31.922Z,101428.26
2022-11-27T11:15:11.862Z,101431.98
2022-11-27T11:17:43.756Z,101432.25
2022-11-27T11:20:22.481Z,101429.31
2022-11-27T11:22:54.678Z,101425.23
2022-11-27T11:25:26.698Z,101424.61
2022-11-27T11:27:58.907Z,101424.09
2022-11-27T11:30:31.715Z,101422.01
2022-11-27T11:33:05.396Z,101424.81
2022-11-27T11:35:38.617Z,101422.97
2022-11-27T11:38:20.177Z,101418.67
2022-11-27T11:41:02.563Z,101420.23
2022-11-27T11:43:36.520Z,101419.88
2022-11-27T11:46:18.332Z,101414.52
2022-11-27T11:48:58.955Z,101410.21
2022-11-27T11:52:00.743Z,101414.66
2022-11-27T11:54:50.268Z,101408.84
2022-11-27T11:57:42.994Z,101405.62
2022-11-27T12:00:18.023Z,101401.09
2022-11-27T12:03:09.678Z,101401.60
2022-11-27T12:05:55.441Z,101395.55
2022-11-27T12:08:40.484Z,101394.86
2022-11-27T12:11:18.438Z,101389.38
2022-11-27T12:14:07.070Z,101387.63
2022-11-27T12:16:51.629Z,101388.92
2022-11-27T12:19:48.703Z,101384.56
2022-11-27T12:22:37.339Z,101384.00
2022-11-27T12:25:27.117Z,101384.59
2022-11-27T12:28:12.903Z,101385.99
2022-11-27T12:30:50.886Z,101388.77
2022-11-27T12:33:51.571Z,101384.98
2022-11-27T12:36:34.770Z,101384.36
2022-11-27T12:39:16.822Z,101383.73
2022-11-27T12:42:00.201Z,101382.50
2022-11-27T12:44:44.711Z,101381.55
2022-11-27T12:47:23.944Z,101386.35
2022-11-27T12:50:00.720Z,101387.73
2022-11-27T12:52:38.905Z,101386.98
2022-11-27T12:55:16.832Z,101382.26
2022-11-27T12:57:53.690Z,101386.05
2022-11-27T13:00:29.490Z,101380.84
2022-11-27T13:03:08.337Z,101382.38
2022-11-27T13:05:46.267Z,101383.31
2022-11-27T13:08:22.968Z,101383.48
2022-11-27T13:10:59.922Z,101379.97
2022-11-27T13:13:38.618Z,101382.09
2022-11-27T13:16:18.920Z,101383.73
2022-11-27T13:18:55.934Z,101381.00
2022-11-27T13:21:32.197Z,101378.92
2022-11-27T13:24:05.086Z,101372.67
2022-11-27T13:26:41.706Z,101368.52
2022-11-27T13:29:22.886Z,101365.48
2022-11-27T13:31:58.913Z,101364.63
2022-11-27T13:34:34.005Z,101364.22
2022-11-27T13:37:06.941Z,101361.19
2022-11-27T13:39:43.359Z,101361.77
2022-11-27T13:42:22.828Z,101358.33
2022-11-27T13:44:59.447Z,101356.04
2022-11-27T13:47:41.423Z,101356.65
2022-11-27T13:50:16.993Z,101350.98
2022-11-27T13:53:00.074Z,101349.73
2022-11-27T13:55:34.083Z,101347.05
2022-11-27T13:58:08.295Z,101348.92
2022-11-27T14:00:43.360Z,101349.34
2022-11-27T14:03:24.867Z,101348.98
2022-11-27T14:05:57.248Z,101348.63
2022-11-27T14:08:32.250Z,101347.62
2022-11-27T14:11:04.982Z,101346.55
2022-11-27T14:13:40.505Z,101354.46
2022-11-27T14:16:26.655Z,101354.60
2022-11-27T14:19:01.481Z,101355.28
2022-11-27T14:21:41.355Z,101352.02
2022-11-27T14:24:41.066Z,101347.22
2022-11-27T14:27:22.685Z,101345.09
2022-11-27T14:29:54.957Z,101348.77
2022-11-27T14:32:39.079Z,101357.51
2022-11-27T14:35:24.916Z,101352.11
2022-11-27T14:38:08.351Z,101350.79
2022-11-27T14:40:40.644Z,101353.98
2022-11-27T14:43:16.614Z,101354.00
2022-11-27T14:45:50.819Z,101352.15
2022-11-27T14:48:26.301Z,101353.63
2022-11-27T14:50:59.201Z,101353.64
2022-11-27T14:53:31.496Z,101351.23
2022-11-27T14:56:04.971Z,101354.02
2022-11-27T14:58:38.571Z,101356.34
2022-11-27T15:01:22.799Z,101355.08
2022-11-27T15:04:03.951Z,101355.75
2022-11-27T15:06:40.805Z,101357.32
2022-11-27T15:09:31.793Z,101359.36
2022-11-27T15:12:16.041Z,101357.73
2022-11-27T15:14:57.886Z,101353.08
2022-11-27T15:17:32.025Z,101353.52
2022-11-27T15:20:12.000Z,101352.00
2022-11-27T15:22:51.541Z,101357.58
2022-11-27T15:25:38.917Z,101362.43
2022-11-27T15:28:29.571Z,101360.27
2022-11-27T15:31:01.886Z,101359.08
2022-11-27T15:33:35.006Z,101360.65
2022-11-27T15:36:20.180Z,101364.19
2022-11-27T15:38:52.378Z,101362.33
2022-11-27T15:41:26.717Z,101360.52
2022-11-27T15:43:58.768Z,101363.59
2022-11-27T15:46:35.737Z,101362.25
2022-11-27T15:49:10.210Z,101358.45
2022-11-27T15:51:42.427Z,101358.16
2022-11-27T15:54:14.469Z,101357.83
2022-11-27T15:56:47.103Z,101362.46
2022-11-27T15:59:20.796Z,101366.02
2022-11-27T16:01:53.002Z,101368.67
2022-11-27T16:04:24.959Z,101364.91
2022-11-27T16:06:56.987Z,101365.09
2022-11-27T16:09:29.271Z,101362.99
2022-11-27T16:12:01.211Z,101356.62
2022-11-27T16:14:33.203Z,101351.46
2022-11-27T16:17:05.091Z,101346.63
2022-11-27T16:19:37.024Z,101347.66
2022-11-27T16:22:09.017Z,101346.96
2022-11-27T16:24:42.376Z,101341.95
2022-11-27T16:27:14.653Z,101343.52
2022-11-27T16:29:46.615Z,101343.80
2022-11-27T16:32:18.549Z,101342.09
2022-11-27T16:34:52.490Z,101341.02
2022-11-27T16:37:25.093Z,101339.48
2022-11-27T16:39:58.234Z,101339.03
2022-11-27T16:42:30.239Z,101342.64
2022-11-27T16:45:02.626Z,101341.90
2022-11-27T16:47:34.634Z,101341.31
2022-11-27T16:50:09.915Z,101339.30
2022-11-27T16:52:42.276Z,101338.50
2022-11-27T16:55:14.801Z,101337.83
2022-11-27T16:57:47.280Z,101338.83
2022-11-27T17:00:22.076Z,101333.86
2022-11-27T17:02:54.054Z,101331.08
2022-11-27T17:05:26.110Z,101330.45
2022-11-27T17:07:58.219Z,101331.59
2022-11-27T17:10:30.652Z,101326.79
2022-11-27T17:13:02.746Z,101328.06
2022-11-27T17:15:40.542Z,101325.31
2022-11-27T17:18:13.865Z,101329.95
2022-11-27T17:20:46.011Z,101325.65
2022-11-27T17:23:18.302Z,101322.23
2022-11-27T17:25:51.188Z,101318.56
2022-11-27T17:28:23.714Z,101318.31
2022-11-27T17:30:55.677Z,101321.48
2022-11-27T17:33:28.283Z,101315.27
2022-11-27T17:36:00.272Z,101314.81
2022-11-27T17:38:32.734Z,101319.63
2022-11-27T17:41:06.604Z,101321.07
2022-11-27T17:43:40.947Z,101318.48
2022-11-27T17:46:17.386Z,101312.14
2022-11-27T17:48:50.890Z,101311.48
2022-11-27T17:51:24.059Z,101308.39
2022-11-27T17:53:56.788Z,101306.12
2022-11-27T17:56:29.187Z,101306.21
2022-11-27T17:59:01.586Z,101302.39
2022-11-27T18:01:34.889Z,101296.35
2022-11-27T18:04:07.605Z,101294.63
2022-11-27T18:06:41.777Z,101288.10
2022-11-27T18:09:14.765Z,101289.98
2022-11-27T18:11:46.912Z,101282.95
2022-11-27T18:14:19.099Z,101284.64
2022-11-27T18:16:51.070Z,101287.50
2022-11-27T18:19:23.622Z,101283.16
2022-11-27T18:21:55.527Z,101284.38
2022-11-27T18:24:27.722Z,101285.13
2022-11-27T18:27:09.109Z,101281.77
2022-11-27T18:29:44.832Z,101281.38
2022-11-27T18:32:18.756Z,101281.80
2022-11-27T18:34:52.804Z,101282.00
2022-11-27T18:37:25.007Z,101280.00
2022-11-27T18:39:57.064Z,101274.23
2022-11-27T18:42:30.694Z,101272.84
2022-11-27T18:45:03.988Z,101270.27
2022-11-27T18:47:36.051Z,101268.55
2022-11-27T18:50:10.705Z,101268.95
2022-11-27T18:52:43.204Z,101265.16
2022-11-27T18:55:15.170Z,101265.72
2022-11-27T18:57:47.669Z,101267.84
2022-11-27T19:00:21.426Z,101267.72
2022-11-27T19:02:54.775Z,101264.53
2022-11-27T19:05:27.040Z,101266.02
2022-11-27T19:08:04.509Z,101263.56
2022-11-27T19:10:36.520Z,101260.59
2022-11-27T19:13:08.817Z,101258.46
2022-11-27T19:15:42.857Z,101255.83
2022-11-27T19:18:15.614Z,101261.20
2022-11-27T19:20:49.114Z,101264.02
2022-11-27T19:23:21.409Z,101258.13
2022-11-27T19:25:53.756Z,101259.48
2022-11-27T19:28:25.720Z,101257.21
2022-11-27T19:30:57.785Z,101260.60
2022-11-27T19:33:30.260Z,101253.58
2022-11-27T19:36:04.244Z,101254.48
2022-11-27T19:38:36.913Z,101261.21
2022-11-27T19:41:13.831Z,101260.66
2022-11-27T19:43:47.357Z,101258.46
2022-11-27T19:46:21.640Z,101257.12
2022-11-27T19:48:57.788Z,101260.36
2022-11-27T19:51:33.195Z,101257.76
2022-11-27T19:54:10.288Z,101255.45
2022-11-27T19:56:44.248Z,101253.31
2022-11-27T19:59:21.395Z,101255.42
2022-11-27T20:01:58.456Z,101255.59
2022-11-27T20:04:31.837Z,101253.83
2022-11-27T20:07:03.888Z,101259.63
2022-11-27T20:09:36.098Z,101260.23
2022-11-27T20:12:09.069Z,101259.16
2022-11-27T20:14:41.572Z,101255.61
2022-11-27T20:17:13.830Z,101250.69
2022-11-27T20:19:45.948Z,101249.77
2022-11-27T20:22:17.964Z,101254.23
2022-11-27T20:25:17.169Z,101248.23
2022-11-27T20:27:42.322Z,101245.73
2022-11-27T20:30:16.457Z,101247.61
2022-11-27T20:32:48.578Z,101251.69
2022-11-27T20:35:20.734Z,101248.94
2022-11-27T20:37:52.733Z,101249.28
2022-11-27T20:40:25.911Z,101254.40
2022-11-27T20:42:57.966Z,101254.88
2022-11-27T20:45:29.886Z,101260.45
2022-11-27T20:48:02.275Z,101259.50
2022-11-27T20:50:34.955Z,101256.81
2022-11-27T20:53:08.480Z,101250.25
2022-11-27T20:55:40.473Z,101247.70
2022-11-27T20:58:13.944Z,101248.09
2022-11-27T21:00:46.059Z,101244.02
2022-11-27T21:03:18.639Z,101243.61
2022-11-27T21:05:51.651Z,101239.65
2022-11-27T21:08:24.823Z,101239.30
2022-11-27T21:10:57.191Z,101236.36
2022-11-27T21:13:29.257Z,101227.94
2022-11-27T21:16:02.193Z,101229.25
2022-11-27T21:18:34.113Z,101228.39
2022-11-27T21:21:12.519Z,101224.39
2022-11-27T21:23:44.681Z,101216.09
2022-11-27T21:26:16.891Z,101216.79
2022-11-27T21:28:50.399Z,101210.23
2022-11-27T21:31:24.657Z,101206.58
2022-11-27T21:33:58.686Z,101202.34
2022-11-27T21:36:33.337Z,101204.02
2022-11-27T21:39:08.653Z,101201.37
2022-11-27T21:41:40.644Z,101203.70
2022-11-27T21:44:13.375Z,101204.26
2022-11-27T21:46:45.620Z,101202.73
2022-11-27T21:49:19.351Z,101198.21
2022-11-27T21:51:54.958Z,101194.52
2022-11-27T21:54:34.049Z,101197.02
2022-11-27T21:57:06.429Z,101197.13
2022-11-27T21:59:38.725Z,101199.80
2022-11-27T22:02:13.211Z,101197.83
2022-11-27T22:04:45.350Z,101203.27
2022-11-27T22:07:17.344Z,101202.42
2022-11-27T22:09:49.323Z,101197.71
2022-11-27T22:12:21.460Z,101201.11
2022-11-27T22:14:53.499Z,101201.84
2022-11-27T22:17:25.513Z,101198.27
2022-11-27T22:19:57.889Z,101202.79
2022-11-27T22:22:30.977Z,101203.48
2022-11-27T22:25:04.401Z,101206.63
2022-11-27T22:27:36.363Z,101213.82
2022-11-27T22:30:10.492Z,101219.72
2022-11-27T22:32:43.042Z,101221.46
2022-11-27T22:35:15.787Z,101217.66
2022-11-27T22:37:47.877Z,101221.24
2022-11-27T22:40:20.249Z,101220.55
2022-11-27T22:42:53.084Z,101222.05
2022-11-27T22:45:25.154Z,101215.21
2022-11-27T22:47:57.268Z,101214.11
2022-11-27T22:50:29.385Z,101219.29
2022-11-27T22:53:01.321Z,101217.27
2022-11-27T22:55:33.311Z,101219.08
2022-11-27T22:58:05.304Z,101215.98
2022-11-27T23:00:37.801Z,101210.30
2022-11-27T23:03:09.804Z,101211.11
2022-11-27T23:05:46.439Z,101209.85
2022-11-27T23:08:19.097Z,101207.21
2022-11-27T23:10:52.975Z,101211.84
2022-11-27T23:13:24.913Z,101211.23
2022-11-27T23:15:56.903Z,101212.31
2022-11-27T23:18:28.840Z,101214.83
2022-11-27T23:21:00.957Z,101221.77
2022-11-27T23:23:33.074Z,101217.52
2022-11-27T23:26:07.445Z,101218.70
2022-11-27T23:28:39.905Z,101218.99
2022-11-27T23:31:29.596Z,101216.26
2022-11-27T23:34:04.482Z,101218.30
2022-11-27T23:36:37.189Z,101219.02
2022-11-27T23:39:12.299Z,101215.63
2022-11-27T23:41:44.698Z,101215.25
2022-11-27T23:44:16.612Z,101214.31
2022-11-27T23:46:49.213Z,101210.42
2022-11-27T23:49:21.485Z,101205.88
2022-11-27T23:51:53.422Z,101202.11
2022-11-27T23:54:25.282Z,101201.38
2022-11-27T23:56:57.451Z,101198.76
2022-11-27T23:59:29.415Z,101195.05
